createdAt,value
2022-12-25T00:00:35.640Z,0.50
2022-12-25T00:03:02.801Z,0.68
2022-12-25T00:05:29.678Z,0.93
2022-12-25T00:07:56.722Z,0.50
2022-12-25T00:10:24.229Z,0.65
2022-12-25T00:12:51.128Z,0.83
2022-12-25T00:15:18.130Z,0.60
2022-12-25T00:17:44.940Z,0.70
2022-12-25T00:20:11.919Z,0.50
2022-12-25T00:22:38.833Z,0.60
2022-12-25T00:25:05.881Z,0.50
2022-12-25T00:27:34.071Z,0.40
2022-12-25T00:30:01.740Z,0.60
2022-12-25T00:32:28.552Z,0.43
2022-12-25T00:34:55.586Z,0.47
2022-12-25T00:37:22.557Z,0.60
2022-12-25T00:39:49.403Z,0.70
2022-12-25T00:42:16.330Z,0.55
2022-12-25T00:44:43.181Z,0.40
2022-12-25T00:47:10.040Z,0.70
2022-12-25T00:49:36.890Z,0.50
2022-12-25T00:52:03.987Z,0.70
2022-12-25T00:54:30.836Z,0.50
2022-12-25T00:56:57.764Z,0.70
2022-12-25T00:59:24.729Z,0.70
2022-12-25T01:01:51.913Z,0.90
2022-12-25T01:04:19.012Z,1.08
2022-12-25T01:06:45.817Z,1.20
2022-12-25T01:09:12.540Z,0.93
2022-12-25T01:11:39.489Z,0.95
2022-12-25T01:14:06.479Z,0.80
2022-12-25T01:16:33.553Z,0.85
2022-12-25T01:19:00.485Z,0.80
2022-12-25T01:21:27.470Z,1.45
2022-12-25T01:23:54.683Z,1.20
2022-12-25T01:26:23.953Z,0.70
2022-12-25T01:28:51.617Z,0.80
2022-12-25T01:31:21.269Z,0.70
2022-12-25T01:33:48.671Z,0.90
2022-12-25T01:36:25.859Z,0.82
2022-12-25T01:38:54.722Z,0.70
2022-12-25T01:41:23.875Z,0.63
2022-12-25T01:44:00.603Z,0.70
2022-12-25T01:46:27.700Z,1.00
2022-12-25T01:48:58.127Z,0.50
2022-12-25T01:51:38.196Z,0.77
2022-12-25T01:54:09.853Z,0.82
2022-12-25T01:56:39.165Z,0.90
2022-12-25T01:59:08.233Z,0.90
2022-12-25T02:01:35.621Z,1.00
2022-12-25T02:04:26.601Z,0.70
2022-12-25T02:06:53.812Z,1.02
2022-12-25T02:09:20.656Z,0.80
2022-12-25T02:11:47.772Z,0.85
2022-12-25T02:14:14.856Z,1.00
2022-12-25T02:16:57.670Z,0.60
2022-12-25T02:19:41.659Z,0.65
2022-12-25T02:22:33.230Z,1.00
2022-12-25T02:25:33.717Z,0.82
2022-12-25T02:28:13.877Z,0.75
2022-12-25T02:30:56.591Z,0.63
2022-12-25T02:33:34.093Z,0.63
2022-12-25T02:36:06.129Z,0.60
2022-12-25T02:38:40.637Z,0.65
2022-12-25T02:41:15.680Z,0.60
2022-12-25T02:43:46.542Z,0.40
2022-12-25T02:46:17.745Z,0.55
2022-12-25T02:48:58.888Z,0.60
2022-12-25T02:51:28.984Z,0.50
2022-12-25T02:53:58.356Z,0.43
2022-12-25T02:56:29.815Z,0.50
2022-12-25T02:58:56.740Z,0.40
2022-12-25T03:01:28.510Z,0.70
2022-12-25T03:03:59.190Z,0.30
2022-12-25T03:06:29.429Z,0.65
2022-12-25T03:09:00.415Z,0.77
2022-12-25T03:11:27.308Z,0.50
2022-12-25T03:13:58.101Z,0.73
2022-12-25T03:16:25.023Z,0.80
2022-12-25T03:18:55.528Z,0.63
2022-12-25T03:21:22.482Z,0.60
2022-12-25T03:23:53.368Z,0.82
2022-12-25T03:26:20.205Z,0.68
2022-12-25T03:28:47.058Z,0.50
2022-12-25T03:31:51.650Z,0.60
2022-12-25T03:34:19.768Z,0.50
2022-12-25T03:37:08.272Z,0.50
2022-12-25T03:39:44.125Z,0.80
2022-12-25T03:42:13.471Z,0.30
2022-12-25T03:45:19.260Z,0.60
2022-12-25T03:47:49.387Z,0.47
2022-12-25T03:50:37.202Z,0.47
2022-12-25T03:53:10.987Z,0.80
2022-12-25T03:55:39.631Z,0.80
2022-12-25T03:58:17.554Z,0.82
2022-12-25T04:00:44.492Z,2.33
2022-12-25T04:03:11.364Z,2.20
2022-12-25T04:05:38.341Z,2.20
2022-12-25T04:08:05.218Z,1.60
2022-12-25T04:10:32.068Z,1.90
2022-12-25T04:12:58.934Z,2.20
2022-12-25T04:15:25.994Z,2.10
2022-12-25T04:17:52.966Z,2.17
2022-12-25T04:20:19.908Z,2.25
2022-12-25T04:22:46.752Z,1.73
2022-12-25T04:25:13.749Z,1.70
2022-12-25T04:27:40.520Z,1.80
2022-12-25T04:30:08.896Z,1.15
2022-12-25T04:32:35.873Z,1.10
2022-12-25T04:35:02.994Z,0.93
2022-12-25T04:37:29.857Z,1.30
2022-12-25T04:39:56.701Z,1.20
2022-12-25T04:42:23.515Z,0.90
2022-12-25T04:44:50.386Z,1.08
2022-12-25T04:47:17.110Z,0.88
2022-12-25T04:49:43.919Z,0.90
2022-12-25T04:52:10.726Z,0.70
2022-12-25T04:54:39.127Z,0.60
2022-12-25T04:57:06.004Z,0.50
2022-12-25T04:59:32.813Z,0.38
2022-12-25T05:01:59.894Z,0.40
2022-12-25T05:04:26.768Z,0.40
2022-12-25T05:06:54.290Z,0.40
2022-12-25T05:09:21.250Z,0.22
2022-12-25T05:11:48.042Z,0.30
2022-12-25T05:14:15.686Z,0.10
2022-12-25T05:16:42.674Z,0.20
2022-12-25T05:19:09.796Z,0.10
2022-12-25T05:21:37.120Z,0.10
2022-12-25T05:24:04.121Z,0.00
2022-12-25T05:26:30.980Z,0.10
2022-12-25T05:28:59.443Z,0.10
2022-12-25T05:31:26.355Z,0.20
2022-12-25T05:33:53.277Z,0.00
2022-12-25T05:36:20.448Z,0.10
2022-12-25T05:38:47.266Z,0.00
2022-12-25T05:41:14.134Z,0.13
2022-12-25T05:43:41.081Z,0.10
2022-12-25T05:46:10.338Z,0.10
2022-12-25T05:48:38.105Z,0.20
2022-12-25T05:51:11.027Z,0.10
2022-12-25T05:53:38.998Z,0.00
2022-12-25T05:56:08.220Z,0.10
2022-12-25T05:58:38.752Z,0.10
2022-12-25T06:01:11.859Z,0.30
2022-12-25T06:03:38.861Z,0.07
2022-12-25T06:06:06.163Z,0.03
2022-12-25T06:08:33.082Z,0.17
2022-12-25T06:11:02.904Z,0.10
2022-12-25T06:13:29.723Z,0.08
2022-12-25T06:15:56.615Z,0.17
2022-12-25T06:18:23.573Z,0.10
2022-12-25T06:20:50.564Z,0.10
2022-12-25T06:23:17.387Z,0.03
2022-12-25T06:25:44.180Z,0.17
2022-12-25T06:28:10.964Z,0.20
2022-12-25T06:30:37.803Z,0.30
2022-12-25T06:33:04.679Z,0.30
2022-12-25T06:35:31.518Z,0.20
2022-12-25T06:37:58.312Z,0.20
2022-12-25T06:40:25.148Z,0.57
2022-12-25T06:42:52.262Z,0.80
2022-12-25T06:45:19.059Z,0.47
2022-12-25T06:47:45.935Z,0.57
2022-12-25T06:50:12.751Z,0.40
2022-12-25T06:52:39.651Z,0.70
2022-12-25T06:55:06.940Z,0.80
2022-12-25T06:57:33.748Z,1.00
2022-12-25T07:00:00.610Z,0.80
2022-12-25T07:02:28.280Z,1.33
2022-12-25T07:04:55.377Z,1.30
2022-12-25T07:07:22.258Z,0.82
2022-12-25T07:09:49.417Z,1.00
2022-12-25T07:12:20.422Z,1.08
2022-12-25T07:14:47.719Z,1.08
2022-12-25T07:17:19.597Z,0.80
2022-12-25T07:19:47.366Z,1.20
2022-12-25T07:22:15.624Z,0.90
2022-12-25T07:24:43.002Z,1.10
2022-12-25T07:27:10.425Z,1.20
2022-12-25T07:29:37.199Z,1.40
2022-12-25T07:32:04.497Z,1.10
2022-12-25T07:34:32.252Z,1.27
2022-12-25T07:36:59.078Z,1.48
2022-12-25T07:39:25.881Z,1.60
2022-12-25T07:41:52.711Z,1.60
2022-12-25T07:44:19.764Z,2.42
2022-12-25T07:46:47.180Z,2.28
2022-12-25T07:49:14.096Z,1.80
2022-12-25T07:51:40.891Z,1.35
2022-12-25T07:54:07.909Z,1.00
2022-12-25T07:56:34.834Z,0.90
2022-12-25T07:59:01.851Z,1.00
2022-12-25T08:01:29.133Z,0.50
2022-12-25T08:03:59.042Z,0.95
2022-12-25T08:06:32.610Z,1.57
2022-12-25T08:09:06.569Z,2.20
2022-12-25T08:11:34.066Z,1.90
2022-12-25T08:14:01.047Z,2.30
2022-12-25T08:16:28.209Z,1.52
2022-12-25T08:18:55.144Z,1.43
2022-12-25T08:21:22.193Z,1.52
2022-12-25T08:23:49.248Z,1.80
2022-12-25T08:26:20.048Z,1.67
2022-12-25T08:28:48.327Z,2.10
2022-12-25T08:31:24.278Z,2.33
2022-12-25T08:33:54.756Z,1.80
2022-12-25T08:36:22.604Z,1.70
2022-12-25T08:38:50.775Z,1.40
2022-12-25T08:41:18.322Z,1.50
2022-12-25T08:43:45.921Z,1.37
2022-12-25T08:46:13.134Z,1.30
2022-12-25T08:48:43.272Z,1.25
2022-12-25T08:51:16.014Z,1.27
2022-12-25T08:53:44.528Z,1.67
2022-12-25T08:56:12.507Z,2.30
2022-12-25T08:58:40.198Z,2.22
2022-12-25T09:01:08.127Z,2.47
2022-12-25T09:03:35.680Z,2.65
2022-12-25T09:06:07.672Z,2.92
2022-12-25T09:08:35.360Z,2.33
2022-12-25T09:11:07.794Z,2.28
2022-12-25T09:13:36.094Z,2.58
2022-12-25T09:16:11.539Z,2.60
2022-12-25T09:18:39.064Z,2.60
2022-12-25T09:21:11.335Z,2.47
2022-12-25T09:23:39.628Z,1.77
2022-12-25T09:26:08.108Z,1.77
2022-12-25T09:28:35.112Z,1.58
2022-12-25T09:31:02.831Z,1.30
2022-12-25T09:33:29.705Z,1.60
2022-12-25T09:36:05.413Z,1.50
2022-12-25T09:38:33.280Z,1.80
2022-12-25T09:41:18.027Z,1.80
2022-12-25T09:43:50.378Z,1.60
2022-12-25T09:46:21.964Z,1.53
2022-12-25T09:49:03.143Z,1.10
2022-12-25T09:51:34.487Z,1.30
2022-12-25T09:54:10.968Z,0.90
2022-12-25T09:56:37.994Z,1.30
2022-12-25T09:59:26.416Z,1.03
2022-12-25T10:02:27.119Z,1.10
2022-12-25T10:05:18.499Z,0.98
2022-12-25T10:07:51.231Z,0.65
2022-12-25T10:10:18.061Z,0.80
2022-12-25T10:12:50.630Z,0.80
2022-12-25T10:15:43.498Z,0.60
2022-12-25T10:18:31.049Z,0.60
2022-12-25T10:21:00.813Z,0.73
2022-12-25T10:23:27.551Z,0.60
2022-12-25T10:25:54.783Z,0.80
2022-12-25T10:28:26.247Z,0.60
2022-12-25T10:30:56.209Z,0.90
2022-12-25T10:33:23.768Z,0.52
2022-12-25T10:35:50.645Z,0.57
2022-12-25T10:38:19.555Z,0.67
2022-12-25T10:41:06.486Z,0.80
2022-12-25T10:43:42.033Z,0.60
2022-12-25T10:46:13.953Z,0.77
2022-12-25T10:48:46.725Z,0.60
2022-12-25T10:51:13.945Z,0.60
2022-12-25T10:53:43.513Z,0.45
2022-12-25T10:56:18.855Z,0.50
2022-12-25T10:58:45.726Z,0.70
2022-12-25T11:01:13.620Z,0.90
2022-12-25T11:03:52.210Z,0.70
2022-12-25T11:06:25.263Z,0.70
2022-12-25T11:08:56.930Z,0.75
2022-12-25T11:11:25.034Z,0.93
2022-12-25T11:13:56.186Z,1.00
2022-12-25T11:16:36.726Z,0.93
2022-12-25T11:19:22.870Z,0.93
2022-12-25T11:21:55.926Z,1.15
2022-12-25T11:24:27.190Z,0.80
2022-12-25T11:26:57.888Z,0.80
2022-12-25T11:29:45.842Z,0.80
2022-12-25T11:32:33.535Z,0.82
2022-12-25T11:35:02.557Z,1.00
2022-12-25T11:37:43.588Z,1.08
2022-12-25T11:40:20.763Z,0.90
2022-12-25T11:42:57.576Z,0.90
2022-12-25T11:45:48.377Z,0.80
2022-12-25T11:48:23.598Z,0.55
2022-12-25T11:50:55.936Z,0.88
2022-12-25T11:53:30.763Z,0.93
2022-12-25T11:56:21.660Z,1.00
2022-12-25T11:58:53.720Z,0.70
2022-12-25T12:01:44.337Z,0.80
2022-12-25T12:04:27.425Z,0.80
2022-12-25T12:07:14.119Z,0.70
2022-12-25T12:09:54.685Z,0.80
2022-12-25T12:12:34.352Z,0.50
2022-12-25T12:15:08.952Z,0.68
2022-12-25T12:17:35.837Z,0.80
2022-12-25T12:20:24.443Z,0.43
2022-12-25T12:22:51.494Z,0.40
2022-12-25T12:25:19.611Z,0.55
2022-12-25T12:27:52.155Z,0.68
2022-12-25T12:30:35.280Z,0.73
2022-12-25T12:33:07.824Z,0.30
2022-12-25T12:35:38.809Z,0.20
2022-12-25T12:38:15.018Z,0.57
2022-12-25T12:40:52.610Z,0.50
2022-12-25T12:43:48.574Z,0.43
2022-12-25T12:46:30.704Z,0.40
2022-12-25T12:49:24.809Z,0.50
2022-12-25T12:52:07.356Z,0.35
2022-12-25T12:54:56.815Z,0.52
2022-12-25T12:57:28.081Z,0.35
2022-12-25T12:59:59.966Z,0.60
2022-12-25T13:03:07.703Z,0.60
2022-12-25T13:05:45.275Z,0.60
2022-12-25T13:08:40.059Z,0.70
2022-12-25T13:11:26.700Z,0.70
2022-12-25T13:13:57.078Z,1.30
2022-12-25T13:16:41.407Z,1.40
2022-12-25T13:19:17.384Z,1.50
2022-12-25T13:22:16.287Z,1.88
2022-12-25T13:24:43.123Z,1.50
2022-12-25T13:27:35.954Z,2.15
2022-12-25T13:30:19.172Z,2.20
2022-12-25T13:32:46.328Z,2.25
2022-12-25T13:35:14.544Z,2.70
2022-12-25T13:37:42.343Z,2.50
2022-12-25T13:40:23.430Z,2.88
2022-12-25T13:42:55.299Z,2.90
2022-12-25T13:45:26.862Z,2.55
2022-12-25T13:47:55.840Z,3.10
2022-12-25T13:50:26.885Z,2.83
2022-12-25T13:52:55.756Z,3.20
2022-12-25T13:55:29.995Z,2.90
2022-12-25T13:57:59.902Z,3.10
2022-12-25T14:01:00.838Z,3.10
2022-12-25T14:03:36.041Z,3.30
2022-12-25T14:06:06.812Z,3.60
2022-12-25T14:08:35.850Z,3.00
2022-12-25T14:11:05.777Z,3.30
2022-12-25T14:13:37.559Z,3.63
2022-12-25T14:16:05.752Z,3.00
2022-12-25T14:18:33.418Z,3.70
2022-12-25T14:21:02.635Z,3.90
2022-12-25T14:23:50.348Z,3.70
2022-12-25T14:26:27.593Z,3.80
2022-12-25T14:29:16.559Z,3.90
2022-12-25T14:31:46.222Z,3.78
2022-12-25T14:34:22.655Z,4.10
2022-12-25T14:36:51.662Z,3.63
2022-12-25T14:39:33.798Z,4.28
2022-12-25T14:42:11.275Z,3.92
2022-12-25T14:44:40.074Z,3.70
2022-12-25T14:47:18.897Z,3.60
2022-12-25T14:49:47.149Z,3.63
2022-12-25T14:52:23.335Z,3.80
2022-12-25T14:54:55.614Z,3.95
2022-12-25T14:57:47.345Z,3.92
2022-12-25T15:00:28.276Z,3.60
2022-12-25T15:02:57.717Z,3.95
2022-12-25T15:05:32.124Z,3.88
2022-12-25T15:08:22.729Z,4.15
2022-12-25T15:11:00.387Z,3.78
2022-12-25T15:13:29.379Z,4.30
2022-12-25T15:16:06.259Z,4.15
2022-12-25T15:18:39.686Z,4.55
2022-12-25T15:21:10.444Z,4.32
2022-12-25T15:23:37.297Z,4.25
2022-12-25T15:26:04.111Z,4.13
2022-12-25T15:28:30.903Z,4.30
2022-12-25T15:30:57.791Z,4.00
2022-12-25T15:33:24.625Z,4.10
2022-12-25T15:35:51.445Z,4.03
2022-12-25T15:38:18.442Z,4.50
2022-12-25T15:40:45.285Z,4.57
2022-12-25T15:43:38.761Z,4.03
2022-12-25T15:46:00.715Z,4.13
2022-12-25T15:48:27.652Z,4.35
2022-12-25T15:50:54.505Z,4.37
2022-12-25T15:53:21.502Z,5.10
2022-12-25T15:55:48.394Z,5.00
2022-12-25T15:58:15.229Z,5.10
2022-12-25T16:00:42.025Z,4.80
2022-12-25T16:03:09.088Z,4.80
2022-12-25T16:05:36.138Z,4.88
2022-12-25T16:08:02.929Z,5.10
2022-12-25T16:10:34.847Z,6.47
2022-12-25T16:13:05.473Z,6.72
2022-12-25T16:15:32.330Z,6.47
2022-12-25T16:17:59.234Z,5.82
2022-12-25T16:20:26.110Z,5.85
2022-12-25T16:22:52.911Z,5.72
2022-12-25T16:25:20.102Z,5.70
2022-12-25T16:27:47.066Z,5.50
2022-12-25T16:30:16.582Z,5.55
2022-12-25T16:32:44.198Z,5.10
2022-12-25T16:35:12.061Z,4.88
2022-12-25T16:37:39.563Z,5.28
2022-12-25T16:40:08.746Z,5.10
2022-12-25T16:42:37.154Z,5.13
2022-12-25T16:45:04.875Z,4.78
2022-12-25T16:47:32.052Z,5.10
2022-12-25T16:49:59.245Z,5.25
2022-12-25T16:52:26.149Z,5.37
2022-12-25T16:54:53.103Z,5.13
2022-12-25T16:57:19.979Z,5.95
2022-12-25T16:59:46.850Z,5.60
2022-12-25T17:02:19.701Z,5.82
2022-12-25T17:04:47.254Z,5.40
2022-12-25T17:07:15.543Z,5.53
2022-12-25T17:09:44.599Z,5.38
2022-12-25T17:12:11.760Z,5.70
2022-12-25T17:14:38.659Z,5.70
2022-12-25T17:17:05.601Z,5.57
2022-12-25T17:19:32.694Z,5.78
2022-12-25T17:21:59.767Z,6.05
2022-12-25T17:24:27.767Z,6.00
2022-12-25T17:26:55.180Z,6.20
2022-12-25T17:29:23.102Z,6.00
2022-12-25T17:31:50.951Z,5.47
2022-12-25T17:34:17.848Z,5.57
2022-12-25T17:36:44.765Z,5.20
2022-12-25T17:39:11.786Z,5.60
2022-12-25T17:41:38.976Z,5.53
2022-12-25T17:44:05.821Z,5.80
2022-12-25T17:46:32.917Z,5.57
2022-12-25T17:49:01.461Z,6.05
2022-12-25T17:51:30.397Z,5.80
2022-12-25T17:53:59.975Z,5.60
2022-12-25T17:56:26.890Z,6.13
2022-12-25T17:58:56.291Z,6.68
2022-12-25T18:01:25.241Z,8.70
2022-12-25T18:03:53.025Z,7.53
2022-12-25T18:06:23.019Z,7.17
2022-12-25T18:08:50.411Z,6.93
2022-12-25T18:11:20.916Z,7.00
2022-12-25T18:13:50.125Z,7.10
2022-12-25T18:16:18.074Z,7.13
2022-12-25T18:18:51.535Z,6.70
2022-12-25T18:21:20.087Z,7.30
2022-12-25T18:23:47.768Z,7.10
2022-12-25T18:26:14.590Z,7.38
2022-12-25T18:28:42.219Z,7.45
2022-12-25T18:31:12.988Z,6.93
2022-12-25T18:33:39.881Z,6.90
2022-12-25T18:36:07.173Z,7.53
2022-12-25T18:38:34.070Z,8.20
2022-12-25T18:41:05.747Z,8.25
2022-12-25T18:43:53.961Z,8.00
2022-12-25T18:46:21.646Z,9.30
2022-12-25T18:48:48.705Z,8.65
2022-12-25T18:51:15.666Z,8.48
2022-12-25T18:53:42.667Z,8.85
2022-12-25T18:56:12.667Z,9.07
2022-12-25T18:58:39.995Z,8.95
2022-12-25T19:01:19.229Z,8.25
2022-12-25T19:03:48.372Z,9.02
2022-12-25T19:06:20.782Z,9.25
2022-12-25T19:08:47.987Z,9.00
2022-12-25T19:11:16.107Z,9.10
2022-12-25T19:13:43.627Z,9.48
2022-12-25T19:16:11.410Z,9.65
2022-12-25T19:18:39.639Z,8.85
2022-12-25T19:21:08.504Z,9.10
2022-12-25T19:23:35.913Z,9.60
2022-12-25T19:26:05.088Z,9.27
2022-12-25T19:28:31.952Z,9.32
2022-12-25T19:31:03.236Z,9.27
2022-12-25T19:33:33.876Z,9.93
2022-12-25T19:36:08.349Z,9.20
2022-12-25T19:38:35.385Z,8.88
2022-12-25T19:41:10.668Z,8.65
2022-12-25T19:43:40.460Z,9.23
2022-12-25T19:46:14.851Z,9.43
2022-12-25T19:48:43.110Z,9.13
2022-12-25T19:51:27.888Z,9.32
2022-12-25T19:53:55.523Z,9.15
2022-12-25T19:56:23.851Z,9.10
2022-12-25T19:58:50.905Z,9.27
2022-12-25T20:01:19.974Z,9.77
2022-12-25T20:03:48.466Z,10.52
2022-12-25T20:06:18.460Z,11.40
2022-12-25T20:08:50.239Z,11.45
2022-12-25T20:11:17.725Z,11.30
2022-12-25T20:13:45.547Z,11.00
2022-12-25T20:16:12.896Z,12.75
2022-12-25T20:18:41.129Z,13.60
2022-12-25T20:21:12.499Z,11.88
2022-12-25T20:23:39.756Z,13.87
2022-12-25T20:26:07.145Z,13.98
2022-12-25T20:28:35.496Z,14.13
2022-12-25T20:31:07.042Z,13.27
2022-12-25T20:33:35.721Z,13.90
2022-12-25T20:36:04.140Z,13.43
2022-12-25T20:38:31.773Z,13.48
2022-12-25T20:41:26.309Z,12.35
2022-12-25T20:43:48.919Z,12.55
2022-12-25T20:46:16.055Z,11.68
2022-12-25T20:48:42.953Z,11.93
2022-12-25T20:51:13.804Z,12.35
2022-12-25T20:53:41.545Z,13.10
2022-12-25T20:56:14.631Z,12.82
2022-12-25T20:58:42.286Z,12.90
2022-12-25T21:01:11.717Z,12.10
2022-12-25T21:03:39.086Z,12.43
2022-12-25T21:06:07.686Z,13.95
2022-12-25T21:08:34.867Z,12.90
2022-12-25T21:11:02.644Z,13.18
2022-12-25T21:13:32.526Z,13.43
2022-12-25T21:15:59.848Z,12.18
2022-12-25T21:18:28.342Z,12.60
2022-12-25T21:20:57.396Z,12.82
2022-12-25T21:23:25.413Z,12.43
2022-12-25T21:25:53.016Z,13.27
2022-12-25T21:28:19.890Z,13.10
2022-12-25T21:30:46.718Z,11.48
2022-12-25T21:33:17.013Z,11.93
2022-12-25T21:35:44.156Z,11.50
2022-12-25T21:38:11.163Z,11.63
2022-12-25T21:40:38.475Z,10.65
2022-12-25T21:43:05.946Z,11.00
2022-12-25T21:45:35.872Z,10.80
2022-12-25T21:48:03.586Z,10.90
2022-12-25T21:50:34.628Z,10.53
2022-12-25T21:53:05.346Z,10.75
2022-12-25T21:55:32.554Z,10.30
2022-12-25T21:57:59.305Z,10.40
2022-12-25T22:00:26.219Z,10.10
2022-12-25T22:02:53.185Z,9.93
2022-12-25T22:05:20.051Z,10.23
2022-12-25T22:07:46.910Z,10.43
2022-12-25T22:10:13.735Z,10.05
2022-12-25T22:12:40.757Z,9.45
2022-12-25T22:15:09.458Z,10.23
2022-12-25T22:17:41.481Z,9.95
2022-12-25T22:20:11.011Z,10.52
2022-12-25T22:22:38.026Z,10.23
2022-12-25T22:25:06.233Z,10.93
2022-12-25T22:27:36.314Z,9.90
2022-12-25T22:30:07.871Z,10.27
2022-12-25T22:32:34.723Z,10.13
2022-12-25T22:35:01.452Z,9.98
2022-12-25T22:37:28.449Z,10.90
2022-12-25T22:39:55.385Z,10.30
2022-12-25T22:42:22.177Z,10.73
2022-12-25T22:44:49.004Z,10.73
2022-12-25T22:47:15.796Z,11.40
2022-12-25T22:49:42.624Z,10.98
2022-12-25T22:52:10.152Z,11.40
2022-12-25T22:54:38.143Z,10.77
2022-12-25T22:57:06.179Z,10.48
2022-12-25T22:59:34.071Z,11.18
2022-12-25T23:02:01.234Z,11.52
2022-12-25T23:04:29.363Z,10.47
2022-12-25T23:06:56.564Z,10.52
2022-12-25T23:42:11.046Z,8.48
2022-12-25T23:44:37.960Z,9.85
2022-12-25T23:47:04.853Z,9.07
2022-12-25T23:49:31.767Z,8.60
2022-12-25T23:51:58.749Z,9.77
2022-12-25T23:54:28.538Z,9.57
2022-12-25T23:56:55.956Z,9.18
2022-12-25T23:59:22.934Z,8.40
